createdAt,value
2018-01-29T00:01:28.268Z,20.40
2018-01-29T00:03:56.206Z,20.40
2018-01-29T00:06:24.380Z,20.50
2018-01-29T00:08:53.085Z,20.50
2018-01-29T00:11:21.030Z,20.50
2018-01-29T00:13:50.124Z,20.50
2018-01-29T00:16:18.970Z,20.50
2018-01-29T00:18:46.921Z,20.50
2018-01-29T00:21:14.990Z,20.50
2018-01-29T00:23:42.957Z,20.50
2018-01-29T00:26:10.972Z,20.50
2018-01-29T00:28:39.072Z,20.50
2018-01-29T00:31:07.886Z,20.40
2018-01-29T00:33:35.830Z,20.40
2018-01-29T00:36:04.660Z,20.40
2018-01-29T00:38:32.607Z,20.30
2018-01-29T00:41:00.564Z,20.40
2018-01-29T00:43:29.400Z,20.50
2018-01-29T00:45:57.372Z,20.50
2018-01-29T00:48:25.444Z,20.40
2018-01-29T00:50:53.638Z,20.40
2018-01-29T00:53:21.581Z,20.30
2018-01-29T00:55:49.696Z,20.30
2018-01-29T00:58:17.790Z,20.30
2018-01-29T01:00:46.463Z,20.30
2018-01-29T01:03:15.325Z,20.40
2018-01-29T01:05:43.480Z,20.40
2018-01-29T01:08:11.454Z,20.30
2018-01-29T01:10:39.390Z,20.20
2018-01-29T01:13:08.186Z,20.10
2018-01-29T01:15:36.175Z,20.10
2018-01-29T01:18:04.247Z,20.10
2018-01-29T01:20:32.310Z,20.20
2018-01-29T01:23:00.226Z,20.10
2018-01-29T01:25:28.176Z,20.00
2018-01-29T01:27:56.261Z,20.00
2018-01-29T01:30:24.197Z,20.10
2018-01-29T01:32:52.141Z,20.10
2018-01-29T01:35:20.965Z,20.00
2018-01-29T01:37:48.900Z,20.00
2018-01-29T01:40:17.577Z,20.00
2018-01-29T01:42:46.405Z,20.00
2018-01-29T01:45:14.459Z,20.00
2018-01-29T01:47:43.133Z,20.20
2018-01-29T01:50:11.941Z,20.20
2018-01-29T01:52:39.871Z,20.10
2018-01-29T01:55:07.823Z,20.00
2018-01-29T01:57:35.910Z,20.00
2018-01-29T02:00:04.141Z,19.90
2018-01-29T02:02:32.074Z,20.00
2018-01-29T02:05:00.148Z,20.10
2018-01-29T02:07:28.832Z,20.00
2018-01-29T02:09:56.749Z,20.00
2018-01-29T02:12:25.681Z,20.00
2018-01-29T02:14:53.644Z,20.00
2018-01-29T02:17:21.675Z,19.90
2018-01-29T02:19:49.934Z,19.80
2018-01-29T02:22:18.632Z,19.90
2018-01-29T02:24:46.563Z,19.90
2018-01-29T02:27:14.733Z,19.90
2018-01-29T02:29:42.676Z,19.90
2018-01-29T02:32:10.608Z,19.90
2018-01-29T02:34:39.434Z,19.80
2018-01-29T02:37:07.537Z,19.80
2018-01-29T02:39:35.538Z,19.80
2018-01-29T02:42:04.346Z,19.80
2018-01-29T02:44:32.296Z,19.80
2018-01-29T02:47:01.165Z,19.80
2018-01-29T02:49:29.350Z,19.80
2018-01-29T02:51:58.190Z,19.80
2018-01-29T02:54:26.259Z,19.80
2018-01-29T02:56:54.513Z,19.80
2018-01-29T02:59:24.146Z,19.70
2018-01-29T03:01:58.762Z,19.70
2018-01-29T03:27:35.177Z,19.90
2018-01-29T03:30:03.947Z,19.90
2018-01-29T03:32:31.972Z,19.90
2018-01-29T03:34:59.908Z,20.00
2018-01-29T03:37:28.732Z,20.20
2018-01-29T03:39:56.684Z,20.20
2018-01-29T03:42:24.631Z,20.20
2018-01-29T03:44:53.413Z,20.30
2018-01-29T03:47:22.154Z,20.40
2018-01-29T03:49:50.240Z,20.40
2018-01-29T03:52:18.319Z,20.50
2018-01-29T03:54:46.245Z,20.80
2018-01-29T03:57:14.256Z,21.10
2018-01-29T03:59:42.302Z,21.30
2018-01-29T04:02:10.221Z,22.40
2018-01-29T04:04:38.176Z,22.90
2018-01-29T04:07:06.229Z,23.00
2018-01-29T04:09:34.133Z,22.80
2018-01-29T04:12:02.065Z,22.10
2018-01-29T04:14:30.143Z,21.80
2018-01-29T04:16:58.114Z,21.30
2018-01-29T04:19:26.083Z,21.20
2018-01-29T04:21:54.161Z,21.30
2018-01-29T04:24:22.156Z,21.30
2018-01-29T04:26:50.203Z,21.10
2018-01-29T04:29:18.259Z,21.60
2018-01-29T04:31:46.200Z,22.30
2018-01-29T04:34:14.134Z,21.80
2018-01-29T04:36:42.200Z,21.90
2018-01-29T04:39:10.140Z,22.30
2018-01-29T04:41:38.082Z,22.50
2018-01-29T04:44:07.025Z,22.10
2018-01-29T04:46:35.125Z,22.10
2018-01-29T04:49:03.086Z,21.90
2018-01-29T04:51:31.290Z,22.00
2018-01-29T04:53:59.965Z,22.10
2018-01-29T04:56:28.725Z,21.90
2018-01-29T04:58:56.783Z,21.90
2018-01-29T05:01:24.738Z,22.10
2018-01-29T05:03:52.688Z,22.50
2018-01-29T05:06:20.864Z,22.60
2018-01-29T05:08:48.823Z,22.90
2018-01-29T05:11:17.518Z,23.40
2018-01-29T05:13:46.356Z,23.80
2018-01-29T05:16:14.291Z,23.80
2018-01-29T05:18:42.229Z,23.70
2018-01-29T05:21:11.104Z,22.80
2018-01-29T05:23:39.326Z,22.80
2018-01-29T05:26:07.284Z,22.70
2018-01-29T05:28:36.087Z,23.30
2018-01-29T05:31:04.023Z,23.30
2018-01-29T05:33:32.688Z,23.30
2018-01-29T05:36:18.229Z,23.30
2018-01-29T05:38:47.175Z,23.70
2018-01-29T05:41:15.222Z,23.70
2018-01-29T05:43:43.421Z,23.10
2018-01-29T05:46:11.359Z,23.10
2018-01-29T05:48:39.413Z,23.70
2018-01-29T05:51:07.616Z,24.00
2018-01-29T05:53:35.549Z,24.10
2018-01-29T05:56:03.573Z,24.60
2018-01-29T05:58:31.630Z,24.20
2018-01-29T06:00:59.589Z,24.30
2018-01-29T06:03:27.552Z,24.00
2018-01-29T06:05:55.624Z,23.80
2018-01-29T06:08:23.572Z,23.60
2018-01-29T06:10:52.240Z,23.30
2018-01-29T06:13:21.071Z,23.80
2018-01-29T06:15:49.236Z,23.80
2018-01-29T06:18:17.222Z,24.20
2018-01-29T06:20:45.274Z,24.00
2018-01-29T06:23:13.215Z,23.70
2018-01-29T06:25:42.037Z,24.20
2018-01-29T06:28:10.103Z,24.20
2018-01-29T06:30:38.056Z,23.80
2018-01-29T06:33:06.754Z,24.50
2018-01-29T06:35:34.876Z,24.50
2018-01-29T06:38:02.844Z,24.50
2018-01-29T06:40:30.781Z,24.10
2018-01-29T06:42:58.856Z,23.80
2018-01-29T06:45:26.916Z,23.40
2018-01-29T06:47:55.619Z,23.90
2018-01-29T06:50:23.689Z,23.90
2018-01-29T06:52:51.734Z,24.00
2018-01-29T06:55:20.413Z,23.70
2018-01-29T06:57:48.496Z,23.70
2018-01-29T07:00:17.157Z,24.60
2018-01-29T07:02:45.085Z,24.60
2018-01-29T07:05:13.179Z,24.80
2018-01-29T07:07:41.122Z,24.70
2018-01-29T07:10:09.064Z,24.50
2018-01-29T07:12:38.004Z,25.60
2018-01-29T07:15:05.936Z,25.60
2018-01-29T07:17:34.590Z,26.00
2018-01-29T07:20:02.662Z,25.90
2018-01-29T07:22:30.624Z,25.00
2018-01-29T07:24:58.569Z,24.80
2018-01-29T07:27:26.751Z,24.60
2018-01-29T07:29:54.712Z,24.80
2018-01-29T07:32:23.810Z,24.70
2018-01-29T07:34:51.849Z,24.70
2018-01-29T07:37:20.716Z,24.90
2018-01-29T07:39:48.638Z,24.90
2018-01-29T07:42:16.703Z,24.50
2018-01-29T07:44:45.157Z,24.70
2018-01-29T07:47:13.902Z,24.50
2018-01-29T07:49:41.964Z,24.40
2018-01-29T07:52:09.886Z,24.10
2018-01-29T07:54:38.550Z,24.50
2018-01-29T07:57:06.733Z,24.50
2018-01-29T07:59:34.670Z,24.70
2018-01-29T08:02:02.652Z,24.80
2018-01-29T08:04:30.724Z,24.70
2018-01-29T08:06:58.640Z,24.60
2018-01-29T08:09:26.582Z,24.40
2018-01-29T08:11:54.729Z,24.60
2018-01-29T08:14:22.708Z,24.80
2018-01-29T08:16:51.493Z,24.70
2018-01-29T08:19:19.553Z,24.70
2018-01-29T08:21:47.500Z,25.00
2018-01-29T08:24:15.439Z,25.10
2018-01-29T08:26:43.613Z,24.70
2018-01-29T08:29:11.749Z,24.50
2018-01-29T08:31:39.687Z,24.50
2018-01-29T08:34:07.906Z,24.80
2018-01-29T08:36:35.864Z,24.90
2018-01-29T08:39:04.119Z,24.90
2018-01-29T08:41:34.660Z,24.70
2018-01-29T08:44:04.052Z,24.70
2018-01-29T08:46:32.710Z,24.70
2018-01-29T08:49:02.234Z,25.00
2018-01-29T08:51:32.753Z,25.00
2018-01-29T08:54:01.528Z,25.00
2018-01-29T08:56:33.901Z,24.80
2018-01-29T08:59:03.692Z,25.30
2018-01-29T09:01:32.450Z,25.40
2018-01-29T09:04:00.389Z,25.40
2018-01-29T09:06:29.238Z,25.30
2018-01-29T09:08:57.203Z,25.30
2018-01-29T09:11:25.147Z,25.40
2018-01-29T09:13:54.644Z,25.00
2018-01-29T09:16:26.807Z,25.00
2018-01-29T09:18:55.286Z,24.80
2018-01-29T09:21:23.230Z,24.60
2018-01-29T09:23:51.186Z,24.70
2018-01-29T09:26:19.241Z,24.60
2018-01-29T09:28:47.176Z,24.50
2018-01-29T09:31:15.712Z,24.50
2018-01-29T09:33:43.761Z,24.30
2018-01-29T09:36:11.732Z,24.20
2018-01-29T09:38:39.657Z,24.20
2018-01-29T09:41:08.472Z,24.10
2018-01-29T09:43:36.412Z,24.10
2018-01-29T09:46:05.108Z,24.20
2018-01-29T09:48:34.042Z,24.40
2018-01-29T09:51:02.160Z,24.40
2018-01-29T09:53:30.891Z,24.30
2018-01-29T09:55:59.018Z,24.30
2018-01-29T09:58:27.716Z,24.10
2018-01-29T10:00:56.556Z,24.00
2018-01-29T10:03:24.597Z,24.00
2018-01-29T10:05:52.666Z,24.00
2018-01-29T10:08:20.609Z,23.90
2018-01-29T10:10:48.677Z,24.20
2018-01-29T10:13:16.619Z,24.20
2018-01-29T10:15:44.572Z,24.20
2018-01-29T10:18:12.680Z,24.10
2018-01-29T10:20:40.632Z,24.10
2018-01-29T10:23:08.567Z,23.80
2018-01-29T10:25:36.724Z,23.60
2018-01-29T10:28:05.480Z,24.00
2018-01-29T10:30:34.037Z,24.00
2018-01-29T10:33:02.358Z,24.20
2018-01-29T10:35:30.389Z,24.30
2018-01-29T10:37:58.318Z,24.20
2018-01-29T10:40:27.102Z,24.10
2018-01-29T10:42:55.784Z,23.90
2018-01-29T10:45:24.468Z,23.90
2018-01-29T10:47:52.535Z,23.90
2018-01-29T10:50:20.470Z,23.90
2018-01-29T10:52:48.414Z,23.90
2018-01-29T10:55:16.520Z,24.10
2018-01-29T10:57:44.464Z,24.20
2018-01-29T11:00:12.415Z,24.10
2018-01-29T11:02:41.201Z,24.00
2018-01-29T11:05:10.029Z,24.10
2018-01-29T11:07:37.945Z,24.10
2018-01-29T11:10:06.749Z,24.10
2018-01-29T11:12:35.409Z,24.10
2018-01-29T11:15:03.382Z,24.20
2018-01-29T11:17:31.561Z,24.00
2018-01-29T11:19:59.515Z,24.00
2018-01-29T11:22:27.445Z,23.90
2018-01-29T11:24:55.546Z,23.70
2018-01-29T11:27:23.513Z,24.00
2018-01-29T11:29:51.438Z,24.10
2018-01-29T11:32:20.232Z,23.60
2018-01-29T11:34:48.553Z,23.60
2018-01-29T11:37:16.609Z,23.60
2018-01-29T11:39:44.650Z,23.70
2018-01-29T11:42:13.328Z,23.70
2018-01-29T11:44:41.986Z,23.80
2018-01-29T11:47:10.178Z,23.80
2018-01-29T11:49:38.152Z,23.80
2018-01-29T11:52:06.835Z,23.50
2018-01-29T11:54:34.930Z,23.40
2018-01-29T11:57:03.679Z,23.50
2018-01-29T11:59:31.615Z,23.50
2018-01-29T12:01:59.661Z,23.40
2018-01-29T12:04:28.338Z,23.60
2018-01-29T12:06:57.078Z,23.60
2018-01-29T12:09:25.182Z,23.60
2018-01-29T12:11:53.120Z,23.50
2018-01-29T12:14:21.066Z,23.60
2018-01-29T12:16:49.215Z,23.60
2018-01-29T12:19:17.924Z,23.60
2018-01-29T12:21:45.860Z,23.60
2018-01-29T12:24:13.937Z,23.50
2018-01-29T12:26:42.680Z,23.40
2018-01-29T12:29:10.719Z,23.40
2018-01-29T12:31:39.512Z,23.00
2018-01-29T12:34:07.456Z,23.00
2018-01-29T12:36:36.240Z,22.90
2018-01-29T12:39:04.584Z,22.90
2018-01-29T12:41:32.534Z,23.10
2018-01-29T12:44:01.785Z,23.00
2018-01-29T12:46:30.038Z,23.10
2018-01-29T12:48:57.966Z,23.00
2018-01-29T12:51:25.852Z,23.10
2018-01-29T12:53:53.897Z,23.10
2018-01-29T12:56:23.151Z,23.00
2018-01-29T12:58:51.106Z,23.10
2018-01-29T13:01:19.197Z,22.90
2018-01-29T13:03:47.128Z,22.80
2018-01-29T13:06:15.165Z,22.90
2018-01-29T13:08:43.241Z,22.90
2018-01-29T13:11:11.921Z,22.70
2018-01-29T13:13:39.825Z,22.70
2018-01-29T13:16:07.914Z,22.40
2018-01-29T13:18:35.838Z,22.40
2018-01-29T13:21:03.775Z,22.50
2018-01-29T13:23:31.868Z,22.60
2018-01-29T13:25:59.972Z,22.60
2018-01-29T13:28:28.696Z,22.40
2018-01-29T13:30:56.789Z,22.40
2018-01-29T13:33:24.733Z,22.50
2018-01-29T13:35:52.887Z,22.40
2018-01-29T13:38:21.040Z,22.40
2018-01-29T13:40:49.738Z,22.10
2018-01-29T13:43:17.700Z,22.10
2018-01-29T13:45:46.650Z,22.10
2018-01-29T13:48:14.664Z,22.10
2018-01-29T13:50:43.375Z,22.00
2018-01-29T13:53:12.984Z,22.00
2018-01-29T13:55:41.959Z,22.00
2018-01-29T13:58:10.672Z,22.00
2018-01-29T14:00:39.504Z,22.10
2018-01-29T14:03:07.429Z,22.10
2018-01-29T14:05:36.073Z,22.10
2018-01-29T14:08:04.550Z,22.00
2018-01-29T14:10:32.528Z,22.00
2018-01-29T14:13:00.448Z,21.90
2018-01-29T14:15:28.777Z,21.90
2018-01-29T14:17:56.740Z,21.90
2018-01-29T14:20:24.776Z,21.80
2018-01-29T14:22:53.104Z,21.70
2018-01-29T14:25:21.840Z,21.70
2018-01-29T14:27:49.761Z,21.70
2018-01-29T14:30:17.826Z,21.70
2018-01-29T14:32:45.754Z,21.60
2018-01-29T14:35:13.694Z,21.60
2018-01-29T14:37:42.549Z,21.70
2018-01-29T14:40:10.640Z,21.70
2018-01-29T14:42:39.309Z,21.60
2018-01-29T14:45:07.386Z,21.60
2018-01-29T14:47:35.337Z,21.50
2018-01-29T14:50:03.289Z,21.50
2018-01-29T14:52:31.364Z,21.50
2018-01-29T14:54:59.323Z,21.50
2018-01-29T14:57:27.229Z,21.40
2018-01-29T14:59:55.304Z,21.40
2018-01-29T15:02:23.253Z,21.40
2018-01-29T15:04:51.194Z,21.30
2018-01-29T15:07:19.336Z,21.30
2018-01-29T15:09:47.269Z,21.40
2018-01-29T15:12:15.218Z,21.40
2018-01-29T15:14:43.304Z,21.30
2018-01-29T15:17:11.294Z,21.40
2018-01-29T15:19:39.240Z,21.40
2018-01-29T15:22:07.327Z,21.40
2018-01-29T15:24:35.296Z,21.40
2018-01-29T15:27:03.262Z,21.40
2018-01-29T15:29:31.360Z,21.40
2018-01-29T15:31:59.274Z,21.30
2018-01-29T15:34:27.217Z,21.30
2018-01-29T15:36:56.136Z,21.40
2018-01-29T15:39:24.762Z,21.30
2018-01-29T15:41:52.732Z,21.30
2018-01-29T15:44:21.367Z,21.20
2018-01-29T15:46:50.155Z,21.30
2018-01-29T15:49:18.863Z,21.40
2018-01-29T15:51:46.954Z,21.30
2018-01-29T15:54:14.883Z,21.40
2018-01-29T15:56:43.624Z,21.50
2018-01-29T15:59:11.689Z,21.50
2018-01-29T16:01:39.670Z,21.50
2018-01-29T16:04:07.589Z,21.30
2018-01-29T16:06:36.544Z,21.20
2018-01-29T16:09:04.729Z,21.20
2018-01-29T16:11:32.676Z,21.10
2018-01-29T16:14:00.849Z,21.00
2018-01-29T16:16:28.917Z,21.00
2018-01-29T16:18:56.864Z,21.00
2018-01-29T16:21:24.929Z,21.00
2018-01-29T16:23:52.841Z,21.00
2018-01-29T16:26:20.778Z,21.20
2018-01-29T16:28:48.848Z,21.10
2018-01-29T16:31:16.779Z,21.00
2018-01-29T16:33:44.708Z,21.00
2018-01-29T16:36:12.811Z,21.00
2018-01-29T16:38:40.780Z,21.00
2018-01-29T16:41:08.709Z,21.10
2018-01-29T16:43:36.799Z,20.90
2018-01-29T16:46:04.894Z,20.90
2018-01-29T16:48:33.624Z,21.00
2018-01-29T16:51:01.677Z,21.00
2018-01-29T16:53:30.353Z,21.00
2018-01-29T16:55:58.420Z,21.00
2018-01-29T16:58:26.491Z,21.00
2018-01-29T17:00:54.439Z,21.10
2018-01-29T17:03:22.524Z,21.00
2018-01-29T17:05:50.601Z,21.00
2018-01-29T17:08:18.649Z,21.00
2018-01-29T17:10:46.586Z,21.00
2018-01-29T17:13:14.649Z,20.90
2018-01-29T17:15:43.309Z,20.90
2018-01-29T17:18:12.597Z,20.90
2018-01-29T17:20:40.788Z,20.70
2018-01-29T17:23:08.727Z,20.90
2018-01-29T17:25:36.639Z,20.90
2018-01-29T17:28:04.764Z,20.70
2018-01-29T17:30:32.689Z,20.70
2018-01-29T17:33:01.365Z,20.80
2018-01-29T17:35:29.569Z,20.80
2018-01-29T17:37:57.694Z,20.80
2018-01-29T17:40:25.660Z,20.80
2018-01-29T17:42:53.865Z,20.80
2018-01-29T17:45:22.656Z,20.70
2018-01-29T17:47:51.706Z,20.70
2018-01-29T17:50:19.759Z,20.60
2018-01-29T17:52:47.713Z,20.70
2018-01-29T17:55:16.408Z,20.60
2018-01-29T17:57:44.490Z,20.60
2018-01-29T18:00:12.465Z,20.70
2018-01-29T18:02:40.432Z,20.70
2018-01-29T18:05:08.484Z,20.70
2018-01-29T18:07:37.146Z,20.80
2018-01-29T18:10:05.093Z,20.80
2018-01-29T18:12:33.173Z,20.80
2018-01-29T18:15:01.162Z,20.70
2018-01-29T18:17:30.093Z,20.70
2018-01-29T18:19:58.145Z,20.60
2018-01-29T18:22:26.844Z,20.60
2018-01-29T18:24:54.829Z,20.60
2018-01-29T18:27:22.976Z,20.70
2018-01-29T18:29:51.676Z,20.50
2018-01-29T18:32:19.812Z,20.50
2018-01-29T18:34:47.904Z,20.50
2018-01-29T18:37:16.627Z,20.50
2018-01-29T18:39:44.580Z,20.50
2018-01-29T18:42:13.402Z,20.60
2018-01-29T18:44:41.372Z,20.60
2018-01-29T18:47:09.346Z,20.70
2018-01-29T18:49:37.544Z,20.80
2018-01-29T18:52:05.489Z,20.80
2018-01-29T18:54:33.424Z,20.70
2018-01-29T18:57:02.276Z,20.60
2018-01-29T18:59:30.219Z,20.60
2018-01-29T19:01:58.163Z,20.60
2018-01-29T19:04:26.237Z,20.60
2018-01-29T19:06:54.237Z,20.50
2018-01-29T19:09:22.145Z,20.50
2018-01-29T19:11:50.210Z,20.50
2018-01-29T19:14:18.153Z,20.50
2018-01-29T19:16:46.130Z,20.50
2018-01-29T19:19:14.211Z,20.60
2018-01-29T19:21:42.909Z,20.60
2018-01-29T19:24:10.858Z,20.60
2018-01-29T19:26:38.967Z,20.60
2018-01-29T19:29:07.673Z,20.60
2018-01-29T19:31:36.330Z,20.50
2018-01-29T19:34:04.432Z,20.50
2018-01-29T19:36:33.192Z,20.40
2018-01-29T19:39:01.108Z,20.40
2018-01-29T19:41:29.149Z,20.40
2018-01-29T19:43:57.814Z,20.30
2018-01-29T19:46:25.852Z,20.30
2018-01-29T19:48:53.931Z,20.30
2018-01-29T19:51:21.998Z,20.30
2018-01-29T19:53:49.951Z,20.40
2018-01-29T19:56:18.097Z,20.40
2018-01-29T19:58:46.792Z,20.50
2018-01-29T20:01:15.481Z,20.40
2018-01-29T20:03:44.553Z,20.40
2018-01-29T20:06:12.638Z,20.40
2018-01-29T20:08:41.290Z,20.50
2018-01-29T20:11:09.971Z,20.50
2018-01-29T20:13:38.658Z,20.60
2018-01-29T20:16:06.610Z,20.50
2018-01-29T20:18:34.803Z,20.50
2018-01-29T20:21:02.744Z,20.50
2018-01-29T20:23:30.680Z,20.50
2018-01-29T20:25:58.731Z,20.40
2018-01-29T20:28:26.695Z,20.40
2018-01-29T20:30:54.760Z,20.40
2018-01-29T20:33:22.830Z,20.40
2018-01-29T20:35:50.781Z,20.40
2018-01-29T20:38:18.729Z,20.30
2018-01-29T20:40:46.808Z,20.30
2018-01-29T20:43:14.749Z,20.30
2018-01-29T20:45:42.697Z,20.20
2018-01-29T20:48:10.777Z,20.30
2018-01-29T20:50:38.718Z,20.30
2018-01-29T20:53:06.804Z,20.30
2018-01-29T20:55:34.905Z,20.30
2018-01-29T20:58:02.867Z,20.30
2018-01-29T21:00:30.796Z,20.40
2018-01-29T21:02:59.077Z,20.40
2018-01-29T21:05:27.019Z,20.30
2018-01-29T21:07:55.716Z,20.40
2018-01-29T21:10:23.789Z,20.30
2018-01-29T21:12:51.729Z,20.30
2018-01-29T21:15:20.395Z,20.20
2018-01-29T21:17:48.468Z,20.10
2018-01-29T21:20:16.416Z,20.10
2018-01-29T21:22:44.389Z,20.20
2018-01-29T21:25:12.470Z,20.20
2018-01-29T21:27:40.405Z,20.20
2018-01-29T21:30:08.375Z,20.10
2018-01-29T21:32:36.447Z,20.10
2018-01-29T21:35:04.408Z,20.10
2018-01-29T21:37:32.341Z,20.10
2018-01-29T21:40:00.386Z,20.20
2018-01-29T21:42:28.334Z,20.20
2018-01-29T21:44:56.275Z,20.20
2018-01-29T21:47:25.167Z,20.30
2018-01-29T21:49:54.312Z,20.30
2018-01-29T21:52:22.264Z,20.30
2018-01-29T21:54:50.467Z,20.20
2018-01-29T21:57:18.434Z,20.20
2018-01-29T21:59:46.388Z,20.10
2018-01-29T22:02:14.458Z,20.00
2018-01-29T22:04:42.401Z,19.90
2018-01-29T22:07:11.122Z,19.90
2018-01-29T22:09:39.191Z,19.90
2018-01-29T22:12:07.230Z,19.80
2018-01-29T22:14:35.874Z,19.70
2018-01-29T22:17:04.033Z,19.70
2018-01-29T22:19:31.971Z,19.70
2018-01-29T22:21:59.901Z,19.60
2018-01-29T22:24:27.941Z,19.70
2018-01-29T22:26:56.055Z,19.70
2018-01-29T22:29:24.003Z,19.70
2018-01-29T22:31:52.069Z,19.60
2018-01-29T22:34:20.004Z,19.60
2018-01-29T22:36:48.204Z,19.50
2018-01-29T22:39:16.276Z,19.50
2018-01-29T22:41:44.227Z,19.40
2018-01-29T22:44:12.141Z,19.40
2018-01-29T22:46:40.307Z,19.40
2018-01-29T22:49:08.250Z,19.40
2018-01-29T22:51:36.185Z,19.20
2018-01-29T22:54:04.988Z,19.20
2018-01-29T22:56:33.831Z,19.20
2018-01-29T22:59:01.773Z,19.30
2018-01-29T23:01:29.802Z,19.20
2018-01-29T23:03:58.479Z,19.00
2018-01-29T23:06:26.423Z,19.00
2018-01-29T23:08:54.503Z,19.00
2018-01-29T23:11:22.454Z,19.00
2018-01-29T23:13:50.394Z,19.00
2018-01-29T23:16:18.499Z,19.10
2018-01-29T23:18:46.436Z,19.00
2018-01-29T23:21:14.358Z,19.00
2018-01-29T23:23:42.404Z,19.00
2018-01-29T23:26:10.347Z,18.90
2018-01-29T23:28:38.289Z,19.00
2018-01-29T23:31:06.337Z,18.90
2018-01-29T23:33:34.299Z,18.90
2018-01-29T23:36:02.237Z,18.90
2018-01-29T23:38:30.301Z,18.90
2018-01-29T23:40:58.996Z,18.90
2018-01-29T23:43:26.953Z,18.90
2018-01-29T23:45:55.741Z,18.80
2018-01-29T23:48:24.401Z,18.70
2018-01-29T23:50:52.346Z,18.70
2018-01-29T23:53:20.431Z,18.70
2018-01-29T23:55:48.356Z,18.60
2018-01-29T23:58:16.430Z,18.60
